sensor_id;sensor_type;location;lat;lon;timestamp;pressure;altitude;pressure_sealevel;temperature;humidity
14242;BME280;7205;50.864;12.766;2022-11-04T00:00:43;96436.38;;;11.03;80.38
14242;BME280;7205;50.864;12.766;2022-11-04T00:03:10;96438.63;;;11.00;80.90
14242;BME280;7205;50.864;12.766;2022-11-04T00:05:37;96433.53;;;10.98;80.54
14242;BME280;7205;50.864;12.766;2022-11-04T00:08:04;96437.41;;;10.96;81.65
14242;BME280;7205;50.864;12.766;2022-11-04T00:10:54;96442.88;;;10.94;81.50
14242;BME280;7205;50.864;12.766;2022-11-04T00:13:39;96447.34;;;10.94;81.89
14242;BME280;7205;50.864;12.766;2022-11-04T00:16:06;96440.84;;;10.96;81.92
14242;BME280;7205;50.864;12.766;2022-11-04T00:18:51;96437.41;;;10.96;82.05
14242;BME280;7205;50.864;12.766;2022-11-04T00:21:18;96444.09;;;10.98;81.63
14242;BME280;7205;50.864;12.766;2022-11-04T00:24:03;96446.72;;;11.05;82.05
14242;BME280;7205;50.864;12.766;2022-11-04T00:26:50;96441.84;;;11.08;82.07
14242;BME280;7205;50.864;12.766;2022-11-04T00:29:34;96443.03;;;11.12;82.61
14242;BME280;7205;50.864;12.766;2022-11-04T00:32:01;96431.84;;;11.17;82.67
14242;BME280;7205;50.864;12.766;2022-11-04T00:34:46;96430.19;;;11.22;82.62
14242;BME280;7205;50.864;12.766;2022-11-04T00:37:13;96436.69;;;11.26;82.52
14242;BME280;7205;50.864;12.766;2022-11-04T00:39:40;96436.28;;;11.29;82.72
14242;BME280;7205;50.864;12.766;2022-11-04T00:42:08;96439.53;;;11.31;82.62
14242;BME280;7205;50.864;12.766;2022-11-04T00:44:35;96442.19;;;11.31;82.47
14242;BME280;7205;50.864;12.766;2022-11-04T00:47:02;96446.22;;;11.34;82.64
14242;BME280;7205;50.864;12.766;2022-11-04T00:49:29;96444.38;;;11.34;82.38
14242;BME280;7205;50.864;12.766;2022-11-04T00:51:55;96451.06;;;11.37;82.32
14242;BME280;7205;50.864;12.766;2022-11-04T00:54:22;96440.31;;;11.38;82.51
14242;BME280;7205;50.864;12.766;2022-11-04T00:56:49;96449.22;;;11.44;82.68
14242;BME280;7205;50.864;12.766;2022-11-04T00:59:19;96449.63;;;11.48;83.20
14242;BME280;7205;50.864;12.766;2022-11-04T01:01:46;96456.91;;;11.52;82.79
14242;BME280;7205;50.864;12.766;2022-11-04T01:04:13;96452.22;;;11.54;82.90
14242;BME280;7205;50.864;12.766;2022-11-04T01:06:40;96436.38;;;11.54;82.42
14242;BME280;7205;50.864;12.766;2022-11-04T01:09:07;96446.16;;;11.54;82.48
14242;BME280;7205;50.864;12.766;2022-11-04T01:11:34;96443.09;;;11.57;82.12
14242;BME280;7205;50.864;12.766;2022-11-04T01:14:01;96446.91;;;11.61;82.71
14242;BME280;7205;50.864;12.766;2022-11-04T01:16:30;96431.47;;;11.64;82.60
14242;BME280;7205;50.864;12.766;2022-11-04T01:18:57;96430.88;;;11.69;82.52
14242;BME280;7205;50.864;12.766;2022-11-04T01:21:23;96421.28;;;11.68;82.35
14242;BME280;7205;50.864;12.766;2022-11-04T01:23:50;96415.00;;;11.69;81.78
14242;BME280;7205;50.864;12.766;2022-11-04T01:26:19;96418.22;;;11.71;82.51
14242;BME280;7205;50.864;12.766;2022-11-04T01:28:46;96432.25;;;11.71;82.17
14242;BME280;7205;50.864;12.766;2022-11-04T01:31:17;96496.97;;;11.69;81.70
14242;BME280;7205;50.864;12.766;2022-11-04T01:33:47;96474.16;;;11.61;81.54
14242;BME280;7205;50.864;12.766;2022-11-04T01:36:15;96527.25;;;11.60;81.33
14242;BME280;7205;50.864;12.766;2022-11-04T01:38:42;96523.41;;;11.56;81.22
14242;BME280;7205;50.864;12.766;2022-11-04T01:41:13;96539.69;;;11.53;80.88
14242;BME280;7205;50.864;12.766;2022-11-04T01:43:43;96503.91;;;11.50;81.00
14242;BME280;7205;50.864;12.766;2022-11-04T01:46:27;96497.19;;;11.48;80.83
14242;BME280;7205;50.864;12.766;2022-11-04T01:49:01;96490.91;;;11.49;80.93
14242;BME280;7205;50.864;12.766;2022-11-04T01:51:31;96499.41;;;11.51;81.25
14242;BME280;7205;50.864;12.766;2022-11-04T01:54:03;96513.25;;;11.53;81.17
14242;BME280;7205;50.864;12.766;2022-11-04T01:56:32;96523.00;;;11.59;81.01
14242;BME280;7205;50.864;12.766;2022-11-04T01:59:04;96512.78;;;11.62;81.05
14242;BME280;7205;50.864;12.766;2022-11-04T02:01:31;96518.50;;;11.66;81.10
14242;BME280;7205;50.864;12.766;2022-11-04T02:04:00;96501.66;;;11.67;81.42
14242;BME280;7205;50.864;12.766;2022-11-04T02:06:48;96498.78;;;11.68;81.09
14242;BME280;7205;50.864;12.766;2022-11-04T02:09:17;96498.56;;;11.70;81.25
14242;BME280;7205;50.864;12.766;2022-11-04T02:11:45;96495.94;;;11.70;81.26
14242;BME280;7205;50.864;12.766;2022-11-04T02:14:30;96501.81;;;11.72;81.73
14242;BME280;7205;50.864;12.766;2022-11-04T02:17:02;96504.03;;;11.75;81.87
14242;BME280;7205;50.864;12.766;2022-11-04T02:19:53;96500.16;;;11.77;82.32
14242;BME280;7205;50.864;12.766;2022-11-04T02:25:33;96489.56;;;11.84;83.21
14242;BME280;7205;50.864;12.766;2022-11-04T02:28:25;96493.41;;;11.88;83.15
14242;BME280;7205;50.864;12.766;2022-11-04T02:31:02;96486.69;;;11.92;83.93
14242;BME280;7205;50.864;12.766;2022-11-04T02:33:39;96495.56;;;11.97;83.55
14242;BME280;7205;50.864;12.766;2022-11-04T02:36:14;96495.75;;;12.02;84.26
14242;BME280;7205;50.864;12.766;2022-11-04T02:38:50;96491.88;;;12.05;84.27
14242;BME280;7205;50.864;12.766;2022-11-04T02:41:25;96497.34;;;12.10;84.07
14242;BME280;7205;50.864;12.766;2022-11-04T02:44:01;96491.63;;;12.13;84.64
14242;BME280;7205;50.864;12.766;2022-11-04T02:46:37;96495.25;;;12.18;84.61
14242;BME280;7205;50.864;12.766;2022-11-04T02:49:10;96491.16;;;12.22;84.47
14242;BME280;7205;50.864;12.766;2022-11-04T02:51:41;96498.25;;;12.28;84.87
14242;BME280;7205;50.864;12.766;2022-11-04T02:54:13;96492.09;;;12.34;84.82
14242;BME280;7205;50.864;12.766;2022-11-04T02:56:45;96493.91;;;12.40;84.73
14242;BME280;7205;50.864;12.766;2022-11-04T02:59:19;96489.34;;;12.47;84.93
14242;BME280;7205;50.864;12.766;2022-11-04T03:01:50;96491.97;;;12.54;84.75
14242;BME280;7205;50.864;12.766;2022-11-04T03:04:21;96500.88;;;12.59;84.64
14242;BME280;7205;50.864;12.766;2022-11-04T03:06:53;96498.59;;;12.63;84.53
14242;BME280;7205;50.864;12.766;2022-11-04T03:09:22;96507.53;;;12.69;84.26
14242;BME280;7205;50.864;12.766;2022-11-04T03:11:53;96504.22;;;12.73;84.29
14242;BME280;7205;50.864;12.766;2022-11-04T03:14:23;96497.91;;;12.74;84.18
14242;BME280;7205;50.864;12.766;2022-11-04T03:16:57;96501.75;;;12.78;84.15
14242;BME280;7205;50.864;12.766;2022-11-04T03:19:32;96504.16;;;12.80;84.06
14242;BME280;7205;50.864;12.766;2022-11-04T03:22:05;96497.66;;;12.82;84.17
14242;BME280;7205;50.864;12.766;2022-11-04T03:24:34;96504.13;;;12.86;83.79
14242;BME280;7205;50.864;12.766;2022-11-04T03:27:04;96510.59;;;12.90;84.08
14242;BME280;7205;50.864;12.766;2022-11-04T03:29:36;96518.56;;;12.90;83.61
14242;BME280;7205;50.864;12.766;2022-11-04T03:32:10;96519.16;;;12.92;83.57
14242;BME280;7205;50.864;12.766;2022-11-04T03:34:41;96519.97;;;12.93;83.71
14242;BME280;7205;50.864;12.766;2022-11-04T03:37:08;96519.97;;;12.93;83.87
14242;BME280;7205;50.864;12.766;2022-11-04T03:39:35;96512.03;;;12.93;83.47
14242;BME280;7205;50.864;12.766;2022-11-04T03:42:05;96529.53;;;12.94;83.31
14242;BME280;7205;50.864;12.766;2022-11-04T03:44:46;96532.19;;;12.94;83.67
14242;BME280;7205;50.864;12.766;2022-11-04T03:47:16;96528.72;;;12.93;83.22
14242;BME280;7205;50.864;12.766;2022-11-04T03:49:43;96534.63;;;12.95;83.71
14242;BME280;7205;50.864;12.766;2022-11-04T03:52:11;96534.63;;;12.95;83.71
14242;BME280;7205;50.864;12.766;2022-11-04T03:54:38;96545.00;;;12.97;83.59
14242;BME280;7205;50.864;12.766;2022-11-04T03:57:14;96544.78;;;12.98;83.65
14242;BME280;7205;50.864;12.766;2022-11-04T04:00:03;96552.13;;;12.96;83.58
14242;BME280;7205;50.864;12.766;2022-11-04T04:02:40;96560.69;;;12.98;83.57
14242;BME280;7205;50.864;12.766;2022-11-04T04:05:13;96564.16;;;12.99;83.36
14242;BME280;7205;50.864;12.766;2022-11-04T04:07:46;96569.44;;;12.99;83.58
14242;BME280;7205;50.864;12.766;2022-11-04T04:10:19;96578.63;;;12.96;83.63
14242;BME280;7205;50.864;12.766;2022-11-04T04:13:13;96574.81;;;12.92;83.19
14242;BME280;7205;50.864;12.766;2022-11-04T04:15:47;96571.75;;;12.89;83.29
14242;BME280;7205;50.864;12.766;2022-11-04T04:18:22;96580.16;;;12.86;83.31
14242;BME280;7205;50.864;12.766;2022-11-04T04:20:52;96575.47;;;12.81;83.48
14242;BME280;7205;50.864;12.766;2022-11-04T04:23:23;96584.91;;;12.77;83.66
14242;BME280;7205;50.864;12.766;2022-11-04T04:26:11;96585.72;;;12.71;84.35
14242;BME280;7205;50.864;12.766;2022-11-04T04:28:56;96582.13;;;12.66;84.42
14242;BME280;7205;50.864;12.766;2022-11-04T04:31:27;96581.97;;;12.60;85.16
14242;BME280;7205;50.864;12.766;2022-11-04T04:34:14;96587.66;;;12.57;85.50
14242;BME280;7205;50.864;12.766;2022-11-04T04:36:44;96586.47;;;12.53;85.44
14242;BME280;7205;50.864;12.766;2022-11-04T04:39:14;96584.25;;;12.50;85.99
14242;BME280;7205;50.864;12.766;2022-11-04T04:42:01;96590.78;;;12.48;86.40
14242;BME280;7205;50.864;12.766;2022-11-04T04:44:45;96589.97;;;12.47;86.74
14242;BME280;7205;50.864;12.766;2022-11-04T04:47:38;96585.31;;;12.43;87.11
14242;BME280;7205;50.864;12.766;2022-11-04T04:50:08;96585.53;;;12.41;87.11
14242;BME280;7205;50.864;12.766;2022-11-04T04:52:38;96599.78;;;12.40;87.46
14242;BME280;7205;50.864;12.766;2022-11-04T04:55:06;96598.59;;;12.36;87.79
14242;BME280;7205;50.864;12.766;2022-11-04T04:57:33;96603.06;;;12.36;87.58
14242;BME280;7205;50.864;12.766;2022-11-04T05:00:00;96598.19;;;12.33;88.16
14242;BME280;7205;50.864;12.766;2022-11-04T05:02:27;96594.72;;;12.32;88.35
14242;BME280;7205;50.864;12.766;2022-11-04T05:04:54;96594.94;;;12.31;88.82
14242;BME280;7205;50.864;12.766;2022-11-04T05:07:22;96589.84;;;12.29;88.70
14242;BME280;7205;50.864;12.766;2022-11-04T05:09:49;96598.63;;;12.30;88.79
14242;BME280;7205;50.864;12.766;2022-11-04T05:12:16;96598.63;;;12.30;89.24
14242;BME280;7205;50.864;12.766;2022-11-04T05:14:43;96589.84;;;12.29;89.33
14242;BME280;7205;50.864;12.766;2022-11-04T05:17:10;96599.44;;;12.30;89.47
14242;BME280;7205;50.864;12.766;2022-11-04T05:19:37;96594.53;;;12.27;89.46
14242;BME280;7205;50.864;12.766;2022-11-04T05:22:04;96599.66;;;12.29;89.71
14242;BME280;7205;50.864;12.766;2022-11-04T05:24:32;96588.03;;;12.30;89.82
14242;BME280;7205;50.864;12.766;2022-11-04T05:26:59;96593.31;;;12.30;89.53
14242;BME280;7205;50.864;12.766;2022-11-04T05:29:26;96599.44;;;12.30;90.26
14242;BME280;7205;50.864;12.766;2022-11-04T05:31:53;96595.16;;;12.29;89.93
14242;BME280;7205;50.864;12.766;2022-11-04T05:34:19;96588.63;;;12.32;90.27
14242;BME280;7205;50.864;12.766;2022-11-04T05:36:46;96592.91;;;12.33;90.36
14242;BME280;7205;50.864;12.766;2022-11-04T05:39:13;96597.19;;;12.34;90.54
14242;BME280;7205;50.864;12.766;2022-11-04T05:41:41;96601.44;;;12.35;90.41
14242;BME280;7205;50.864;12.766;2022-11-04T05:44:09;96599.63;;;12.35;90.52
14242;BME280;7205;50.864;12.766;2022-11-04T05:46:36;96601.44;;;12.35;90.61
14242;BME280;7205;50.864;12.766;2022-11-04T05:49:03;96602.28;;;12.35;90.75
14242;BME280;7205;50.864;12.766;2022-11-04T05:51:30;96599.63;;;12.35;90.94
14242;BME280;7205;50.864;12.766;2022-11-04T05:53:56;96588.44;;;12.33;91.10
14242;BME280;7205;50.864;12.766;2022-11-04T05:56:24;96596.16;;;12.35;90.59
14242;BME280;7205;50.864;12.766;2022-11-04T05:58:53;96596.16;;;12.35;90.97
14242;BME280;7205;50.864;12.766;2022-11-04T06:01:26;96599.00;;;12.33;90.86
14242;BME280;7205;50.864;12.766;2022-11-04T06:03:53;96599.84;;;12.34;91.10
14242;BME280;7205;50.864;12.766;2022-11-04T06:06:22;96592.91;;;12.33;90.85
14242;BME280;7205;50.864;12.766;2022-11-04T06:08:50;96591.28;;;12.32;91.35
14242;BME280;7205;50.864;12.766;2022-11-04T06:11:17;96587.00;;;12.31;91.05
14242;BME280;7205;50.864;12.766;2022-11-04T06:13:44;96587.00;;;12.31;90.91
14242;BME280;7205;50.864;12.766;2022-11-04T06:16:20;96587.00;;;12.31;90.86
14242;BME280;7205;50.864;12.766;2022-11-04T06:18:48;96590.69;;;12.30;91.45
14242;BME280;7205;50.864;12.766;2022-11-04T06:21:21;96590.69;;;12.30;90.60
14242;BME280;7205;50.864;12.766;2022-11-04T06:23:50;96596.78;;;12.30;91.42
14242;BME280;7205;50.864;12.766;2022-11-04T06:26:17;96603.91;;;12.30;90.92
14242;BME280;7205;50.864;12.766;2022-11-04T06:28:44;96597.59;;;12.31;90.99
14242;BME280;7205;50.864;12.766;2022-11-04T06:31:14;96592.28;;;12.31;91.19
14242;BME280;7205;50.864;12.766;2022-11-04T06:33:47;96589.66;;;12.31;90.99
14242;BME280;7205;50.864;12.766;2022-11-04T06:36:15;96589.44;;;12.32;91.43
14242;BME280;7205;50.864;12.766;2022-11-04T06:38:42;96591.06;;;12.33;91.35
14242;BME280;7205;50.864;12.766;2022-11-04T06:41:11;96592.47;;;12.36;91.42
14242;BME280;7205;50.864;12.766;2022-11-04T06:43:38;96599.41;;;12.37;91.56
14242;BME280;7205;50.864;12.766;2022-11-04T06:46:05;96607.94;;;12.39;91.95
14242;BME280;7205;50.864;12.766;2022-11-04T06:48:33;96617.28;;;12.41;91.87
14242;BME280;7205;50.864;12.766;2022-11-04T06:51:00;96604.66;;;12.43;91.61
14242;BME280;7205;50.864;12.766;2022-11-04T06:53:27;96600.75;;;12.46;91.51
14242;BME280;7205;50.864;12.766;2022-11-04T06:56:01;96610.13;;;12.48;91.99
14242;BME280;7205;50.864;12.766;2022-11-04T06:58:33;96633.09;;;12.54;92.08
14242;BME280;7205;50.864;12.766;2022-11-04T07:01:00;96639.00;;;12.56;92.07
14242;BME280;7205;50.864;12.766;2022-11-04T07:03:27;96635.13;;;12.59;91.88
14242;BME280;7205;50.864;12.766;2022-11-04T07:05:55;96638.16;;;12.62;91.66
14242;BME280;7205;50.864;12.766;2022-11-04T07:08:22;96632.44;;;12.66;91.54
14242;BME280;7205;50.864;12.766;2022-11-04T07:10:49;96628.16;;;12.64;91.24
14242;BME280;7205;50.864;12.766;2022-11-04T07:13:16;96628.75;;;12.67;91.03
14242;BME280;7205;50.864;12.766;2022-11-04T07:15:43;96630.59;;;12.66;91.05
14242;BME280;7205;50.864;12.766;2022-11-04T07:18:10;96627.16;;;12.66;90.75
14242;BME280;7205;50.864;12.766;2022-11-04T07:20:36;96630.38;;;12.68;90.40
14242;BME280;7205;50.864;12.766;2022-11-04T07:23:05;96619.78;;;12.68;90.02
14242;BME280;7205;50.864;12.766;2022-11-04T07:25:32;96619.78;;;12.68;90.21
14242;BME280;7205;50.864;12.766;2022-11-04T07:27:59;96626.94;;;12.67;89.89
14242;BME280;7205;50.864;12.766;2022-11-04T07:30:26;96637.97;;;12.64;89.84
14242;BME280;7205;50.864;12.766;2022-11-04T07:32:53;96639.78;;;12.63;89.82
14242;BME280;7205;50.864;12.766;2022-11-04T07:35:20;96641.63;;;12.63;89.54
14242;BME280;7205;50.864;12.766;2022-11-04T07:37:47;96641.63;;;12.63;89.72
14242;BME280;7205;50.864;12.766;2022-11-04T07:40:15;96639.78;;;12.63;89.33
14242;BME280;7205;50.864;12.766;2022-11-04T07:42:42;96640.00;;;12.62;89.67
14242;BME280;7205;50.864;12.766;2022-11-04T07:45:15;96643.84;;;12.66;89.69
14242;BME280;7205;50.864;12.766;2022-11-04T07:47:42;96637.31;;;12.69;89.98
14242;BME280;7205;50.864;12.766;2022-11-04T07:50:09;96641.56;;;12.70;89.82
14242;BME280;7205;50.864;12.766;2022-11-04T07:52:36;96650.13;;;12.72;89.62
14242;BME280;7205;50.864;12.766;2022-11-04T07:55:04;96643.78;;;12.73;89.57
14242;BME280;7205;50.864;12.766;2022-11-04T07:57:32;96642.78;;;12.74;89.53
14242;BME280;7205;50.864;12.766;2022-11-04T07:59:59;96638.31;;;12.74;89.68
14242;BME280;7205;50.864;12.766;2022-11-04T08:02:26;96632.38;;;12.79;89.60
14242;BME280;7205;50.864;12.766;2022-11-04T08:04:52;96623.59;;;12.78;89.43
14242;BME280;7205;50.864;12.766;2022-11-04T08:07:19;96622.59;;;12.79;89.80
14242;BME280;7205;50.864;12.766;2022-11-04T08:09:46;96627.44;;;12.82;89.14
14242;BME280;7205;50.864;12.766;2022-11-04T08:12:13;96634.38;;;12.83;88.92
14242;BME280;7205;50.864;12.766;2022-11-04T08:14:41;96643.75;;;12.86;88.86
14242;BME280;7205;50.864;12.766;2022-11-04T08:17:09;96633.53;;;12.83;88.49
14242;BME280;7205;50.864;12.766;2022-11-04T08:19:35;96640.31;;;12.79;88.28
14242;BME280;7205;50.864;12.766;2022-11-04T08:22:02;96643.00;;;12.72;87.57
14242;BME280;7205;50.864;12.766;2022-11-04T08:24:29;96644.03;;;12.64;87.28
14242;BME280;7205;50.864;12.766;2022-11-04T08:26:56;96651.22;;;12.57;87.58
14242;BME280;7205;50.864;12.766;2022-11-04T08:29:23;96645.16;;;12.50;87.01
14242;BME280;7205;50.864;12.766;2022-11-04T08:31:51;96642.94;;;12.41;87.30
14242;BME280;7205;50.864;12.766;2022-11-04T08:34:18;96626.31;;;12.34;87.45
14242;BME280;7205;50.864;12.766;2022-11-04T08:36:45;96625.09;;;12.30;87.34
14242;BME280;7205;50.864;12.766;2022-11-04T08:39:12;96626.31;;;12.27;87.53
14242;BME280;7205;50.864;12.766;2022-11-04T08:41:40;96622.91;;;12.20;87.66
14242;BME280;7205;50.864;12.766;2022-11-04T08:44:10;96617.63;;;12.14;87.77
14242;BME280;7205;50.864;12.766;2022-11-04T08:46:39;96621.94;;;12.08;88.05
14242;BME280;7205;50.864;12.766;2022-11-04T08:49:08;96613.19;;;12.01;88.07
14242;BME280;7205;50.864;12.766;2022-11-04T08:51:37;96604.25;;;11.96;88.46
14242;BME280;7205;50.864;12.766;2022-11-04T08:54:05;96605.91;;;11.90;88.73
14242;BME280;7205;50.864;12.766;2022-11-04T08:56:34;96608.97;;;11.87;88.68
14242;BME280;7205;50.864;12.766;2022-11-04T08:59:03;96620.34;;;11.88;89.73
14242;BME280;7205;50.864;12.766;2022-11-04T09:01:32;96626.28;;;11.83;89.70
14242;BME280;7205;50.864;12.766;2022-11-04T09:04:00;96633.41;;;11.83;89.50
14242;BME280;7205;50.864;12.766;2022-11-04T09:06:31;96635.44;;;11.81;89.75
14242;BME280;7205;50.864;12.766;2022-11-04T09:08:59;96639.09;;;11.80;89.78
14242;BME280;7205;50.864;12.766;2022-11-04T09:11:29;96634.84;;;11.79;90.14
14242;BME280;7205;50.864;12.766;2022-11-04T09:13:58;96640.31;;;11.77;90.07
14242;BME280;7205;50.864;12.766;2022-11-04T09:16:27;96638.31;;;11.73;89.52
14242;BME280;7205;50.864;12.766;2022-11-04T09:18:55;96632.59;;;11.69;89.70
14242;BME280;7205;50.864;12.766;2022-11-04T09:21:23;96625.72;;;11.68;89.74
14242;BME280;7205;50.864;12.766;2022-11-04T09:23:52;96622.03;;;11.69;89.72
14242;BME280;7205;50.864;12.766;2022-11-04T09:26:20;96613.50;;;11.67;90.09
14242;BME280;7205;50.864;12.766;2022-11-04T09:28:52;96620.63;;;11.67;90.14
14242;BME280;7205;50.864;12.766;2022-11-04T09:31:19;96634.63;;;11.67;90.27
14242;BME280;7205;50.864;12.766;2022-11-04T09:33:46;96630.59;;;11.65;89.99
14242;BME280;7205;50.864;12.766;2022-11-04T09:36:13;96638.31;;;11.66;90.17
14242;BME280;7205;50.864;12.766;2022-11-04T09:38:40;96649.72;;;11.67;89.90
14242;BME280;7205;50.864;12.766;2022-11-04T09:41:27;96652.78;;;11.64;89.79
14242;BME280;7205;50.864;12.766;2022-11-04T09:44:01;96662.50;;;11.63;89.41
14242;BME280;7205;50.864;12.766;2022-11-04T09:46:31;96665.34;;;11.62;89.72
14242;BME280;7205;50.864;12.766;2022-11-04T09:49:00;96674.28;;;11.61;89.19
14242;BME280;7205;50.864;12.766;2022-11-04T09:51:28;96678.56;;;11.62;89.03
14242;BME280;7205;50.864;12.766;2022-11-04T09:53:58;96682.00;;;11.62;89.23
14242;BME280;7205;50.864;12.766;2022-11-04T09:56:32;96687.94;;;11.64;89.72
14242;BME280;7205;50.864;12.766;2022-11-04T09:59:01;96690.59;;;11.64;89.13
14242;BME280;7205;50.864;12.766;2022-11-04T10:01:37;96706.63;;;11.63;89.25
14242;BME280;7205;50.864;12.766;2022-11-04T10:04:17;96714.38;;;11.64;89.66
14242;BME280;7205;50.864;12.766;2022-11-04T10:07:01;96714.38;;;11.64;89.52
14242;BME280;7205;50.864;12.766;2022-11-04T10:09:44;96719.66;;;11.64;89.05
14242;BME280;7205;50.864;12.766;2022-11-04T10:12:23;96720.06;;;11.61;89.38
14242;BME280;7205;50.864;12.766;2022-11-04T10:15:17;96726.97;;;11.62;89.28
14242;BME280;7205;50.864;12.766;2022-11-04T10:17:59;96722.69;;;11.61;89.39
14242;BME280;7205;50.864;12.766;2022-11-04T10:20:42;96721.66;;;11.62;89.62
14242;BME280;7205;50.864;12.766;2022-11-04T10:23:19;96717.19;;;11.63;88.91
14242;BME280;7205;50.864;12.766;2022-11-04T10:25:48;96718.88;;;11.64;89.40
14242;BME280;7205;50.864;12.766;2022-11-04T10:28:20;96715.22;;;11.65;89.41
14242;BME280;7205;50.864;12.766;2022-11-04T10:30:49;96717.66;;;11.66;89.36
14242;BME280;7205;50.864;12.766;2022-11-04T10:33:23;96721.13;;;11.67;89.13
14242;BME280;7205;50.864;12.766;2022-11-04T10:35:55;96725.38;;;11.68;88.91
14242;BME280;7205;50.864;12.766;2022-11-04T10:38:32;96728.22;;;11.66;88.98
14242;BME280;7205;50.864;12.766;2022-11-04T10:40:59;96733.31;;;11.68;89.48
14242;BME280;7205;50.864;12.766;2022-11-04T10:43:31;96734.94;;;11.69;88.83
14242;BME280;7205;50.864;12.766;2022-11-04T10:46:15;96731.47;;;11.68;89.10
14242;BME280;7205;50.864;12.766;2022-11-04T10:48:49;96735.53;;;11.71;88.81
14242;BME280;7205;50.864;12.766;2022-11-04T10:51:17;96729.84;;;11.74;89.19
14242;BME280;7205;50.864;12.766;2022-11-04T10:53:47;96732.09;;;11.77;88.89
14242;BME280;7205;50.864;12.766;2022-11-04T10:56:19;96718.44;;;11.80;89.05
14242;BME280;7205;50.864;12.766;2022-11-04T10:58:52;96712.94;;;11.81;89.49
14242;BME280;7205;50.864;12.766;2022-11-04T11:01:28;96722.13;;;11.85;88.77
14242;BME280;7205;50.864;12.766;2022-11-04T11:03:57;96723.72;;;11.86;88.68
14242;BME280;7205;50.864;12.766;2022-11-04T11:06:26;96717.41;;;11.87;88.04
14242;BME280;7205;50.864;12.766;2022-11-04T11:08:56;96719.25;;;11.87;87.61
14242;BME280;7205;50.864;12.766;2022-11-04T11:11:38;96723.13;;;11.84;87.33
14242;BME280;7205;50.864;12.766;2022-11-04T11:14:15;96717.81;;;11.84;86.87
14242;BME280;7205;50.864;12.766;2022-11-04T11:16:43;96717.03;;;11.84;86.59
14242;BME280;7205;50.864;12.766;2022-11-04T11:19:16;96719.25;;;11.87;86.25
14242;BME280;7205;50.864;12.766;2022-11-04T11:21:44;96717.03;;;11.84;85.65
14242;BME280;7205;50.864;12.766;2022-11-04T11:24:15;96713.97;;;11.80;84.57
14242;BME280;7205;50.864;12.766;2022-11-04T11:26:44;96717.22;;;11.76;84.42
14242;BME280;7205;50.864;12.766;2022-11-04T11:29:21;96720.50;;;11.71;83.86
14242;BME280;7205;50.864;12.766;2022-11-04T11:31:50;96709.47;;;11.61;83.32
14242;BME280;7205;50.864;12.766;2022-11-04T11:34:21;96713.53;;;11.51;83.75
14242;BME280;7205;50.864;12.766;2022-11-04T11:36:51;96715.19;;;11.45;84.14
14242;BME280;7205;50.864;12.766;2022-11-04T11:39:20;96710.50;;;11.40;84.43
14242;BME280;7205;50.864;12.766;2022-11-04T11:41:52;96714.16;;;11.39;84.90
14242;BME280;7205;50.864;12.766;2022-11-04T11:44:26;96720.47;;;11.38;84.99
14242;BME280;7205;50.864;12.766;2022-11-04T11:46:58;96725.56;;;11.40;86.08
14242;BME280;7205;50.864;12.766;2022-11-04T11:49:28;96729.41;;;11.44;86.27
14242;BME280;7205;50.864;12.766;2022-11-04T11:52:15;96721.25;;;11.52;86.17
14242;BME280;7205;50.864;12.766;2022-11-04T11:54:45;96719.44;;;11.59;86.27
14242;BME280;7205;50.864;12.766;2022-11-04T11:57:25;96715.81;;;11.67;85.94
14242;BME280;7205;50.864;12.766;2022-11-04T12:00:00;96703.00;;;11.70;86.08
14242;BME280;7205;50.864;12.766;2022-11-04T12:02:44;96704.81;;;11.76;85.85
14242;BME280;7205;50.864;12.766;2022-11-04T12:05:14;96697.91;;;11.75;85.55
14242;BME280;7205;50.864;12.766;2022-11-04T12:07:48;96702.38;;;11.75;85.29
14242;BME280;7205;50.864;12.766;2022-11-04T12:10:24;96710.53;;;11.73;84.94
14242;BME280;7205;50.864;12.766;2022-11-04T12:13:01;96697.94;;;11.69;84.46
14242;BME280;7205;50.864;12.766;2022-11-04T12:15:41;96687.53;;;11.67;84.27
14242;BME280;7205;50.864;12.766;2022-11-04T12:18:29;96707.06;;;11.73;84.52
14242;BME280;7205;50.864;12.766;2022-11-04T12:21:00;96698.13;;;11.74;84.72
14242;BME280;7205;50.864;12.766;2022-11-04T12:23:38;96697.09;;;11.75;84.70
14242;BME280;7205;50.864;12.766;2022-11-04T12:26:16;96697.50;;;11.78;84.92
14242;BME280;7205;50.864;12.766;2022-11-04T12:29:06;96704.41;;;11.79;84.10
14242;BME280;7205;50.864;12.766;2022-11-04T12:31:47;96702.59;;;11.80;84.36
14242;BME280;7205;50.864;12.766;2022-11-04T12:34:25;96698.91;;;11.81;84.38
14242;BME280;7205;50.864;12.766;2022-11-04T12:37:09;96691.78;;;11.81;84.65
14242;BME280;7205;50.864;12.766;2022-11-04T12:39:49;96681.19;;;11.88;84.46
14242;BME280;7205;50.864;12.766;2022-11-04T12:42:24;96672.06;;;11.90;84.68
14242;BME280;7205;50.864;12.766;2022-11-04T12:45:04;96671.84;;;11.92;84.26
14242;BME280;7205;50.864;12.766;2022-11-04T12:47:41;96668.16;;;11.93;83.94
14242;BME280;7205;50.864;12.766;2022-11-04T12:50:27;96676.72;;;11.95;83.55
14242;BME280;7205;50.864;12.766;2022-11-04T12:53:12;96683.63;;;11.96;83.44
14242;BME280;7205;50.864;12.766;2022-11-04T12:55:48;96683.63;;;11.96;83.13
14242;BME280;7205;50.864;12.766;2022-11-04T12:58:30;96684.00;;;11.99;83.00
14242;BME280;7205;50.864;12.766;2022-11-04T13:01:02;96679.13;;;12.03;83.41
14242;BME280;7205;50.864;12.766;2022-11-04T13:03:43;96680.56;;;12.05;82.98
14242;BME280;7205;50.864;12.766;2022-11-04T13:06:15;96676.06;;;12.06;82.73
14242;BME280;7205;50.864;12.766;2022-11-04T13:08:46;96682.38;;;12.05;81.95
14242;BME280;7205;50.864;12.766;2022-11-04T13:11:19;96685.25;;;12.03;82.12
14242;BME280;7205;50.864;12.766;2022-11-04T13:13:55;96681.97;;;12.01;82.09
14242;BME280;7205;50.864;12.766;2022-11-04T13:16:23;96684.41;;;12.03;82.40
14242;BME280;7205;50.864;12.766;2022-11-04T13:18:51;96677.69;;;12.07;82.19
14242;BME280;7205;50.864;12.766;2022-11-04T13:21:20;96676.66;;;12.08;81.81
14242;BME280;7205;50.864;12.766;2022-11-04T13:23:53;96687.25;;;12.08;81.61
14242;BME280;7205;50.864;12.766;2022-11-04T13:26:22;96688.91;;;12.09;81.24